Flight Track Log - Related Links

Times and Time Zones

All times are in EDT time to prevent confusion due to time zone crossing. See the SNC1611 flight status page for this flight to view local times or setup timezone preferences in your user account.

Time Position Orientation Groundspeed Altitude Reporting Facility
EDT Latitude Longitude Course Direction KTS MPH feet Rate Location/Type
Fri 11:26:20 PM 40.0783 -87.4692 136° Southeast 152 175 5,300  Level Indianapolis Center
Fri 11:27:21 PM 40.0497 -87.4325 136° Southeast 149 171 6,400 1,033 Climbing Indianapolis Center
Fri 11:28:22 PM 40.0197 -87.3950 136° Southeast 148 170 7,400 992 Climbing Indianapolis Center
Fri 11:29:22 PM 39.9886 -87.3558 136° Southeast 154 177 8,400 843 Climbing Indianapolis Center
Fri 11:30:23 PM 39.9569 -87.3153 136° Southeast 159 183 9,100 344 Climbing Indianapolis Center
Fri 11:31:24 PM 39.9189 -87.2697 137° Southeast 181 208 9,100 -49 Level Indianapolis Center
Fri 11:32:25 PM 39.8744 -87.2286 145° Southeast 194 223 9,000  Descending Indianapolis Center
Fri 11:33:25 PM 39.8319 -87.1819 140° Southeast 199 229 9,100  Climbing Indianapolis Center
Fri 11:34:26 PM 39.7867 -87.1400 145° Southeast 201 231 9,000 -49 Descending Indianapolis Center
Fri 11:35:27 PM 39.7408 -87.1000 146° Southeast 201 231 9,000 -49 Level Indianapolis Center
Fri 11:36:28 PM 39.6922 -87.0653 151° Southeast 199 229 8,900  Descending Indianapolis Center
Fri 11:37:28 PM 39.6442 -87.0344 154° Southeast 196 226 9,000 99 Climbing Indianapolis Center
Fri 11:38:29 PM 39.5847 -86.9981 155° Southeast 198 228 9,100 49 Climbing Indianapolis Center
Fri 11:39:30 PM 39.5381 -86.9633 150° Southeast 197 227 9,100  Level Indianapolis Center
Fri 11:40:30 PM 39.4922 -86.9275 149° Southeast 195 224 9,100 -50 Level Indianapolis Center
Fri 11:41:31 PM 39.4453 -86.8900 148° Southeast 196 226 9,000 -49 Descending Indianapolis Center
Fri 11:42:32 PM 39.3986 -86.8517 148° Southeast 198 228 9,000  Level Indianapolis Center
Fri 11:43:32 PM 39.3561 -86.8075 141° Southeast 197 227 9,000  Level Indianapolis Center
Fri 11:44:33 PM 39.3119 -86.7628 142° Southeast 200 230 9,000  Level Indianapolis Center
Fri 11:45:34 PM 39.2678 -86.7200 143° Southeast 200 230 9,000  Level Indianapolis Center
Fri 11:46:35 PM 39.2225 -86.6783 145° Southeast 201 231 9,000 50 Level Indianapolis Center
Fri 11:47:35 PM 39.1772 -86.6419 148° Southeast 197 227 9,100 50 Climbing Indianapolis Center
Fri 11:48:36 PM 39.1256 -86.6036 150° Southeast 196 226 9,100  Level Indianapolis Center
Fri 11:49:36 PM 39.0853 -86.5658 144° Southeast 197 227 9,100  Level Indianapolis Center
Fri 11:50:37 PM 39.0403 -86.5244 144° Southeast 199 229 9,100 -49 Level Indianapolis Center
Fri 11:51:38 PM 38.9903 -86.4694 139° Southeast 198 228 9,000  Descending Indianapolis Center
Fri 11:52:38 PM 38.9506 -86.4175 135° Southeast 202 232 9,100 50 Climbing Indianapolis Center
Fri 11:53:39 PM 38.9072 -86.3728 141° Southeast 203 234 9,100 -50 Level Indianapolis Center
Fri 11:54:39 PM 38.8650 -86.3286 141° Southeast 203 234 9,000 -50 Descending Indianapolis Center
Fri 11:55:40 PM 38.8214 -86.2853 142° Southeast 200 230 9,000 -246 Level Indianapolis Center
Fri 11:56:41 PM 38.7772 -86.2419 143° Southeast 199 229 8,500 -595 Descending Indianapolis Center
Fri 11:57:41 PM 38.7306 -86.2003 145° Southeast 202 232 7,800 -694 Descending Indianapolis Center
Fri 11:58:42 PM 38.6817 -86.1606 148° Southeast 205 236 7,100 -694 Descending Indianapolis Center
Fri 11:59:42 PM 38.6403 -86.1217 144° Southeast 196 226 6,400 -545 Descending Indianapolis Center
Sat 12:00:43 AM 38.5972 -86.0856 147° Southeast 187 215 6,000 -246 Descending Indianapolis Center
Sat 12:01:44 AM 38.5506 -86.0644 161° South 179 206 5,900 -50 Descending Indianapolis Center
Sat 12:02:44 AM 38.4997 -86.0422 161° South 188 216 5,900  Level Indianapolis Center
Sat 12:03:45 AM 38.4486 -86.0200 161° South 191 220 5,900  Level Indianapolis Center
Sat 12:04:45 AM 38.3961 -85.9953 160° South 197 227 5,900  Level Indianapolis Center
Sat 12:05:46 AM 38.3425 -85.9722 161° South 200 230 5,900  Level Indianapolis Center
Sat 12:06:47 AM 38.2900 -85.9442 157° South 202 232 5,900  Level Indianapolis Center
Sat 12:07:47 AM 38.2381 -85.9081 151° Southeast 208 239 5,900  Level Indianapolis Center
Sat 12:08:48 AM 38.1858 -85.8756 154° Southeast 209 241 5,900 -99 Level Indianapolis Center
Sat 12:09:48 AM 38.1331 -85.8436 155° Southeast 209 241 5,700 -446 Descending Indianapolis Center
Sat 12:10:49 AM 38.0814 -85.8131 155° Southeast 207 238 5,000 -793 Descending Indianapolis Center
Sat 12:11:49 AM 38.0328 -85.7839 155° Southeast 202 232 4,100 -694 Descending Indianapolis Center
Sat 12:12:50 AM 38.0078 -85.7275 119° Southeast 199 229 3,600 -753 Descending Indianapolis Center
Sat 12:16:04 AM 38.1333 -85.7333 358° North 130 150 900 -835 Descending Louisville TRACON

Login

Don't have an account? Register now (free) for customized features, flight alerts, and more!